Time;durP1;ratioP1;P1;durP2;ratioP2;P2;SDS_P1;SDS_P2;PMS_P1;PMS_P2;Temp;Humidity;BMP_temperature;BMP_pressure;BME280_temperature;BME280_humidity;BME280_pressure;Samples;Min_cycle;Max_cycle;Signal;HPM_P1;HPM_P2
2020/12/17 00:00:54;;;;;;;4.80;3.40;;;;;;;-0.37;84.61;101239.86;1758498;80;23485;-71
2020/12/17 00:03:22;;;;;;;9.87;6.00;;;;;;;-0.36;84.65;101238.91;1756888;81;20991;-71
2020/12/17 00:05:50;;;;;;;9.33;5.20;;;;;;;-0.34;84.65;101234.38;1752962;81;20995;-71
2020/12/17 00:08:18;;;;;;;9.83;4.57;;;;;;;-0.34;84.68;101232.20;1752840;81;21010;-71
2020/12/17 00:10:47;;;;;;;12.83;6.20;;;;;;;-0.33;84.71;101234.80;1752883;81;21031;-71
2020/12/17 00:13:15;;;;;;;11.63;5.80;;;;;;;-0.33;84.73;101234.80;1752882;81;21189;-71
2020/12/17 00:15:43;;;;;;;9.00;4.83;;;;;;;-0.32;84.72;101244.50;1752846;81;21030;-70
2020/12/17 00:18:11;;;;;;;7.73;4.20;;;;;;;-0.32;84.70;101240.52;1764940;80;21010;-70
2020/12/17 00:20:41;;;;;;;5.93;3.20;;;;;;;-0.34;84.69;101241.50;1782249;80;21574;-71
2020/12/17 00:23:09;;;;;;;5.37;3.97;;;;;;;-0.34;84.65;101241.50;1782213;80;20974;-71
2020/12/17 00:25:40;;;;;;;12.03;5.47;;;;;;;-0.36;84.61;101249.55;1746434;82;21210;-72
2020/12/17 00:28:08;;;;;;;8.57;4.47;;;;;;;-0.37;84.63;101245.19;1769051;81;20974;-71
2020/12/17 00:30:36;;;;;;;12.53;6.73;;;;;;;-0.37;84.65;101244.30;1769099;81;20997;-71
2020/12/17 00:33:03;;;;;;;14.07;7.17;;;;;;;-0.37;84.63;101249.61;1746511;82;20927;-71
2020/12/17 00:35:31;;;;;;;6.43;4.33;;;;;;;-0.40;84.66;101250.63;1769154;81;20985;-70
2020/12/17 00:37:59;;;;;;;6.33;4.70;;;;;;;-0.42;84.68;101249.37;1769021;81;21209;-71
2020/12/17 00:40:27;;;;;;;9.23;5.53;;;;;;;-0.41;84.73;101244.91;1746591;82;20946;-71
2020/12/17 00:42:55;;;;;;;7.07;4.77;;;;;;;-0.41;84.79;101248.89;1769041;81;20957;-70
2020/12/17 00:45:23;;;;;;;15.70;7.47;;;;;;;-0.38;84.85;101248.76;1768985;81;21060;-72
2020/12/17 00:47:51;;;;;;;9.17;5.80;;;;;;;-0.37;84.86;101250.94;1769161;81;21028;-71
2020/12/17 00:50:19;;;;;;;16.07;6.97;;;;;;;-0.39;84.90;101251.01;1769150;81;21215;-71
2020/12/17 00:52:47;;;;;;;11.73;6.97;;;;;;;-0.40;84.94;101247.50;1768993;81;21009;-72
2020/12/17 00:55:15;;;;;;;12.13;6.30;;;;;;;-0.39;84.95;101247.02;1769151;81;21021;-71
2020/12/17 00:57:43;;;;;;;13.90;7.00;;;;;;;-0.40;84.95;101246.64;1746489;82;21048;-71
2020/12/17 01:00:10;;;;;;;12.53;6.90;;;;;;;-0.40;84.94;101255.47;1769031;81;21005;-71
2020/12/17 01:02:38;;;;;;;14.67;5.93;;;;;;;-0.40;84.89;101257.27;1769080;81;21681;-72
2020/12/17 01:05:07;;;;;;;13.40;5.97;;;;;;;-0.45;84.88;101256.63;1746208;82;21037;-71
2020/12/17 01:07:35;;;;;;;8.43;3.53;;;;;;;-0.48;84.91;101251.44;1769032;81;20993;-72
2020/12/17 01:10:04;;;;;;;12.27;6.40;;;;;;;-0.49;84.90;101257.23;1746558;82;20997;-71
2020/12/17 01:12:31;;;;;;;7.47;4.70;;;;;;;-0.47;84.92;101254.03;1768957;81;21024;-71
2020/12/17 01:14:59;;;;;;;6.27;3.77;;;;;;;-0.46;84.94;101254.88;1769101;81;21207;-70
2020/12/17 01:17:27;;;;;;;4.37;3.37;;;;;;;-0.46;84.94;101247.80;1745538;82;21005;-70
2020/12/17 01:19:55;;;;;;;4.60;2.93;;;;;;;-0.44;84.93;101255.70;1743233;80;21044;-70
2020/12/17 01:22:23;;;;;;;5.37;3.37;;;;;;;-0.45;84.95;101252.16;1734828;82;20957;-72
2020/12/17 01:24:51;;;;;;;10.40;5.90;;;;;;;-0.44;84.98;101241.09;1734850;82;21019;-72
2020/12/17 01:27:19;;;;;;;10.83;5.03;;;;;;;-0.41;85.01;101241.80;1734815;82;21281;-71
2020/12/17 01:29:48;;;;;;;10.03;5.73;;;;;;;-0.40;85.06;101234.69;1734857;82;21649;-71
2020/12/17 01:32:17;;;;;;;5.93;3.30;;;;;;;-0.42;85.07;101236.08;1734757;82;21052;-71
2020/12/17 01:34:44;;;;;;;6.13;4.17;;;;;;;-0.42;85.07;101230.77;1734868;82;20921;-71
2020/12/17 01:37:14;;;;;;;10.60;5.00;;;;;;;-0.43;85.09;101227.70;1761451;79;21489;-71
2020/12/17 01:39:42;;;;;;;11.27;6.40;;;;;;;-0.42;85.05;101222.80;1771028;81;21423;-71
2020/12/17 01:42:10;;;;;;;7.67;5.40;;;;;;;-0.42;85.01;101220.13;1770994;81;21035;-71
2020/12/17 01:44:40;;;;;;;6.03;4.10;;;;;;;-0.46;84.92;101220.34;1770926;81;21659;-71
2020/12/17 01:47:08;;;;;;;7.90;4.23;;;;;;;-0.48;84.82;101222.21;1771060;81;21024;-71
2020/12/17 01:49:36;;;;;;;8.70;4.37;;;;;;;-0.47;84.80;101224.80;1771013;81;20953;-71
2020/12/17 01:52:04;;;;;;;3.40;2.70;;;;;;;-0.46;84.78;101224.33;1771047;81;21214;-71
2020/12/17 01:54:32;;;;;;;12.67;6.17;;;;;;;-0.47;84.76;101231.44;1770992;81;21544;-71
2020/12/17 01:57:03;;;;;;;7.87;5.23;;;;;;;-0.46;84.75;101229.20;1770917;79;20988;-71
2020/12/17 01:59:49;;;;;;;9.73;5.90;;;;;;;-0.50;84.72;101225.41;1704996;83;21119;-70
2020/12/17 02:02:17;;;;;;;10.17;4.57;;;;;;;-0.54;84.65;101226.49;1705020;82;21096;-72
2020/12/17 02:04:45;;;;;;;3.97;2.87;;;;;;;-0.58;84.66;101231.09;1704789;82;21281;-71
2020/12/17 02:07:22;;;;;;;11.03;6.40;;;;;;;-0.61;84.64;101228.09;1704717;84;21107;-71
2020/12/17 02:09:51;;;;;;;8.30;3.93;;;;;;;-0.58;84.65;101233.27;1704719;83;21073;-70
2020/12/17 02:12:20;;;;;;;6.50;3.70;;;;;;;-0.58;84.62;101233.75;1704778;84;21032;-71
2020/12/17 02:14:48;;;;;;;5.90;3.73;;;;;;;-0.60;84.59;101227.64;1704872;84;21048;-71
2020/12/17 02:17:16;;;;;;;7.73;3.97;;;;;;;-0.64;84.48;101228.70;1702263;84;22355;-72
2020/12/17 02:19:44;;;;;;;5.00;3.93;;;;;;;-0.65;84.42;101230.98;1672562;84;21046;-71
2020/12/17 02:22:12;;;;;;;4.17;2.60;;;;;;;-0.68;84.40;101227.97;1692829;84;20984;-71
2020/12/17 02:24:40;;;;;;;2.97;2.70;;;;;;;-0.69;84.33;101222.73;1663418;86;21042;-71
2020/12/17 02:27:08;;;;;;;2.70;2.17;;;;;;;-0.70;84.30;101222.34;1692980;83;21032;-72
2020/12/17 02:29:36;;;;;;;2.10;1.90;;;;;;;-0.68;84.24;101223.14;1663495;85;21294;-71
2020/12/17 02:32:04;;;;;;;3.90;3.03;;;;;;;-0.66;84.15;101226.11;1711826;83;21005;-70
2020/12/17 02:34:32;;;;;;;5.00;3.60;;;;;;;-0.65;84.07;101225.19;1712371;83;21187;-71
2020/12/17 02:37:00;;;;;;;3.67;2.80;;;;;;;-0.65;83.94;101215.89;1712319;83;21179;-71
2020/12/17 02:39:27;;;;;;;5.43;3.37;;;;;;;-0.64;83.83;101208.77;1712498;82;21578;-71
2020/12/17 02:41:55;;;;;;;2.53;2.00;;;;;;;-0.62;83.75;101213.10;1712395;83;21445;-71
2020/12/17 02:44:23;;;;;;;3.30;2.47;;;;;;;-0.63;83.64;101211.36;1712294;83;21045;-72
2020/12/17 02:46:51;;;;;;;3.33;2.90;;;;;;;-0.63;83.53;101211.84;1712390;83;21029;-71
2020/12/17 02:49:20;;;;;;;2.10;1.90;;;;;;;-0.63;83.43;101214.50;1712342;83;21022;-70
2020/12/17 02:51:48;;;;;;;2.10;1.57;;;;;;;-0.64;83.39;101208.33;1712513;83;20918;-71
2020/12/17 02:54:16;;;;;;;2.80;2.07;;;;;;;-0.62;83.34;101203.80;1712579;83;21208;-72
2020/12/17 02:56:44;;;;;;;2.17;2.03;;;;;;;-0.61;83.25;101206.84;1743357;81;20905;-72
2020/12/17 02:59:12;;;;;;;2.67;2.27;;;;;;;-0.63;83.15;101196.75;1775137;80;21037;-70
2020/12/17 03:01:40;;;;;;;2.40;2.20;;;;;;;-0.62;83.10;101201.14;1763686;81;21660;-71
2020/12/17 03:04:08;;;;;;;6.93;3.93;;;;;;;-0.62;83.04;101196.27;1779036;79;21076;-72
2020/12/17 03:06:36;;;;;;;8.70;3.30;;;;;;;-0.60;83.02;101198.42;1774607;80;21409;-71
2020/12/17 03:09:05;;;;;;;5.20;2.97;;;;;;;-0.59;83.01;101198.80;1797310;79;20985;-71
2020/12/17 03:11:35;;;;;;;9.43;3.67;;;;;;;-0.59;82.99;101206.29;1774650;80;20932;-71
2020/12/17 03:14:03;;;;;;;4.53;3.40;;;;;;;-0.59;82.95;101204.11;1792717;79;20986;-70
2020/12/17 03:16:32;;;;;;;5.10;3.27;;;;;;;-0.57;82.94;101198.25;1766131;81;21023;-71
2020/12/17 03:19:01;;;;;;;4.27;2.50;;;;;;;-0.55;82.91;101207.48;1757588;80;21159;-71
2020/12/17 03:21:31;;;;;;;5.07;3.33;;;;;;;-0.58;82.86;101204.05;1731744;82;21013;-72
2020/12/17 03:23:58;;;;;;;2.33;2.10;;;;;;;-0.56;82.84;101209.29;1731809;82;20969;-71
2020/12/17 03:26:26;;;;;;;5.83;3.53;;;;;;;-0.55;82.81;101207.48;1731809;82;20938;-72
2020/12/17 03:28:54;;;;;;;3.97;2.73;;;;;;;-0.55;82.73;101214.98;1731713;82;21005;-72
2020/12/17 03:31:22;;;;;;;5.60;3.20;;;;;;;-0.55;82.69;101213.66;1731864;82;21435;-70
2020/12/17 03:33:50;;;;;;;8.53;4.23;;;;;;;-0.56;82.65;101205.31;1731752;82;21072;-71
2020/12/17 03:36:19;;;;;;;7.27;4.37;;;;;;;-0.54;82.64;101210.55;1731719;82;21060;-70
2020/12/17 03:38:47;;;;;;;12.83;5.27;;;;;;;-0.55;82.60;101204.83;1731774;82;20989;-71
2020/12/17 03:41:15;;;;;;;9.43;5.00;;;;;;;-0.58;82.59;101209.36;1731833;82;20921;-70
2020/12/17 03:43:44;;;;;;;9.60;5.20;;;;;;;-0.61;82.59;101203.33;1731721;82;21218;-71
2020/12/17 03:46:11;;;;;;;14.33;6.10;;;;;;;-0.61;82.60;101209.97;1731747;82;20997;-71
2020/12/17 03:48:40;;;;;;;8.93;4.50;;;;;;;-0.63;82.61;101208.70;1731761;82;21020;-71
2020/12/17 03:51:08;;;;;;;6.53;4.03;;;;;;;-0.63;82.62;101206.52;1731756;81;21621;-71
2020/12/17 03:53:36;;;;;;;8.63;4.10;;;;;;;-0.67;82.61;101202.30;1731839;82;20941;-71
2020/12/17 03:56:04;;;;;;;6.93;4.23;;;;;;;-0.72;82.60;101201.17;1731668;82;21412;-71
2020/12/17 03:58:31;;;;;;;7.10;4.97;;;;;;;-0.72;82.65;101206.95;1731709;82;20973;-71
2020/12/17 04:00:59;;;;;;;8.13;4.73;;;;;;;-0.74;82.67;101211.00;1731848;82;21075;-72
2020/12/17 04:03:27;;;;;;;9.47;5.17;;;;;;;-0.73;82.72;101211.86;1719043;82;20944;-71
2020/12/17 04:05:55;;;;;;;7.30;4.60;;;;;;;-0.74;82.74;101208.34;1740200;81;21068;-70
2020/12/17 04:08:24;;;;;;;9.53;4.43;;;;;;;-0.74;82.74;101216.76;1740104;82;21285;-72
2020/12/17 04:10:52;;;;;;;5.13;3.90;;;;;;;-0.75;82.74;101219.89;1740101;82;20996;-71
2020/12/17 04:13:21;;;;;;;4.23;3.30;;;;;;;-0.77;82.74;101225.74;1740190;82;21092;-71
2020/12/17 04:15:48;;;;;;;6.77;3.33;;;;;;;-0.79;82.77;101219.17;1740152;82;21024;-71
2020/12/17 04:18:16;;;;;;;6.27;3.20;;;;;;;-0.80;82.79;101220.12;1773147;79;20938;-71
2020/12/17 04:20:44;;;;;;;9.73;4.90;;;;;;;-0.78;82.83;101220.91;1769056;81;21380;-71
2020/12/17 04:23:12;;;;;;;4.97;3.17;;;;;;;-0.78;82.83;101221.34;1769032;81;21061;-72
2020/12/17 04:25:39;;;;;;;5.07;3.43;;;;;;;-0.81;82.77;101218.86;1746413;82;21042;-71
2020/12/17 04:28:07;;;;;;;7.43;3.90;;;;;;;-0.83;82.76;101228.22;1739218;81;22061;-73
2020/12/17 04:30:35;;;;;;;6.70;4.17;;;;;;;-0.83;82.77;101230.02;1746545;82;21010;-72
2020/12/17 04:33:03;;;;;;;5.73;3.80;;;;;;;-0.84;82.75;101229.61;1769116;81;21319;-72
2020/12/17 04:35:31;;;;;;;4.63;3.13;;;;;;;-0.83;82.76;101238.84;1746371;82;21021;-73
2020/12/17 04:37:58;;;;;;;5.57;3.03;;;;;;;-0.84;82.74;101242.41;1769147;81;20985;-71
2020/12/17 04:40:26;;;;;;;7.37;3.50;;;;;;;-0.86;82.68;101244.28;1746444;82;21001;-71
2020/12/17 04:42:54;;;;;;;3.10;2.80;;;;;;;-0.86;82.68;101236.78;1769139;81;20958;-71
2020/12/17 04:45:22;;;;;;;7.63;3.30;;;;;;;-0.87;82.63;101250.98;1769035;81;22005;-72
2020/12/17 04:47:50;;;;;;;5.50;3.27;;;;;;;-0.90;82.57;101245.36;1739121;81;21017;-71
2020/12/17 04:50:18;;;;;;;3.67;2.60;;;;;;;-0.96;82.50;101258.89;1739239;81;21005;-71
2020/12/17 04:52:46;;;;;;;8.80;5.10;;;;;;;-0.99;82.53;101260.37;1739165;81;21060;-71
2020/12/17 04:55:14;;;;;;;10.87;5.60;;;;;;;-1.00;82.55;101259.95;1718000;82;20895;-70
2020/12/17 04:57:45;;;;;;;4.80;3.37;;;;;;;-1.01;82.57;101263.53;1769125;81;21215;-72
2020/12/17 05:00:14;;;;;;;8.77;5.37;;;;;;;-1.02;82.57;101260.50;1768984;81;20997;-72
2020/12/17 05:02:47;;;;;;;6.03;3.73;;;;;;;-1.06;82.60;101251.80;1769007;81;21567;-71
2020/12/17 05:05:16;;;;;;;4.33;3.60;;;;;;;-1.08;82.62;101256.32;1768973;81;20950;-72
2020/12/17 05:07:44;;;;;;;4.23;3.20;;;;;;;-1.08;82.64;101262.08;1769128;81;20933;-73
2020/12/17 05:10:12;;;;;;;4.33;2.57;;;;;;;-1.08;82.67;101264.73;1746626;82;21183;-71
2020/12/17 05:12:40;;;;;;;3.53;2.53;;;;;;;-1.09;82.67;101268.33;1769045;81;21009;-72
2020/12/17 05:15:08;;;;;;;5.70;3.53;;;;;;;-1.11;82.65;101272.84;1746362;82;20962;-72
2020/12/17 05:17:36;;;;;;;5.40;3.40;;;;;;;-1.16;82.67;101268.58;1767485;81;20906;-72
2020/12/17 05:20:05;;;;;;;3.93;2.80;;;;;;;-1.15;82.72;101266.34;1740135;79;20952;-71
2020/12/17 05:22:35;;;;;;;11.87;7.60;;;;;;;-1.15;82.75;101260.17;1730463;82;21209;-72
2020/12/17 05:25:03;;;;;;;6.67;3.83;;;;;;;-1.14;82.78;101255.24;1734856;81;21033;-72
2020/12/17 05:27:31;;;;;;;6.53;3.90;;;;;;;-1.14;82.78;101257.90;1734757;82;21020;-71
2020/12/17 05:29:58;;;;;;;8.13;4.87;;;;;;;-1.11;82.81;101260.91;1734884;82;21005;-71
2020/12/17 05:32:26;;;;;;;5.13;3.60;;;;;;;-1.12;82.84;101261.34;1734899;82;21126;-72
2020/12/17 05:34:55;;;;;;;6.17;3.30;;;;;;;-1.13;82.86;101262.30;1704261;82;21225;-72
2020/12/17 05:37:22;;;;;;;5.57;3.53;;;;;;;-1.14;82.89;101261.88;1704375;82;21348;-73
2020/12/17 05:39:52;;;;;;;5.10;2.87;;;;;;;-1.16;82.91;101264.59;1730321;82;21119;-70
2020/12/17 05:42:20;;;;;;;6.60;4.30;;;;;;;-1.16;82.95;101270.38;1680993;82;20978;-72
2020/12/17 05:44:48;;;;;;;4.07;2.63;;;;;;;-1.15;82.98;101266.81;1734827;82;21044;-73
2020/12/17 05:47:17;;;;;;;8.50;3.87;;;;;;;-1.15;83.01;101268.14;1734833;82;21162;-71
2020/12/17 05:49:45;;;;;;;7.07;3.83;;;;;;;-1.12;83.05;101264.47;1734698;82;21668;-72
2020/12/17 05:52:19;;;;;;;5.40;2.93;;;;;;;-1.12;83.07;101271.96;1734838;82;21095;-72
2020/12/17 05:54:54;;;;;;;;;;;;;;;-1.11;83.08;101269.72;1737380;81;21561;-72
2020/12/17 05:57:22;;;;;;;7.17;4.50;;;;;;;-1.08;83.11;101273.58;1734884;82;20143;-72
2020/12/17 05:59:59;;;;;;;4.60;2.87;;;;;;;-1.08;83.13;101276.23;1734955;82;21219;-73
2020/12/17 06:02:29;;;;;;;3.70;2.60;;;;;;;-1.09;83.11;101272.31;1640125;87;21122;-70
2020/12/17 06:05:05;;;;;;;5.27;3.90;;;;;;;-1.10;83.06;101262.61;1639550;87;21016;-72
2020/12/17 06:07:49;;;;;;;5.77;3.87;;;;;;;-1.15;83.00;101251.73;1635593;86;21028;-73
2020/12/17 06:10:23;;;;;;;3.00;2.70;;;;;;;-1.19;82.96;101242.63;1635660;87;21611;-71
2020/12/17 06:12:59;;;;;;;5.20;2.93;;;;;;;-1.24;82.96;101246.83;1635598;87;22278;-72
2020/12/17 06:15:31;;;;;;;8.47;4.10;;;;;;;-1.26;82.98;101251.78;1635505;87;21039;-73
2020/12/17 06:18:01;;;;;;;5.30;3.57;;;;;;;-1.30;82.98;101251.05;1643477;86;21714;-72
2020/12/17 06:20:31;;;;;;;3.83;3.43;;;;;;;-1.32;83.01;101260.87;1661078;86;21136;-73
2020/12/17 06:23:00;;;;;;;4.87;2.97;;;;;;;-1.33;83.05;101256.48;1661149;86;21112;-74
2020/12/17 06:25:31;;;;;;;5.07;2.80;;;;;;;-1.31;83.07;101267.92;1662436;86;21392;-74
2020/12/17 06:27:59;;;;;;;3.53;3.07;;;;;;;-1.34;83.07;101263.59;1662679;86;21648;-73
2020/12/17 06:30:32;;;;;;;2.60;2.40;;;;;;;-1.36;83.04;101265.45;1662806;86;21520;-75
2020/12/17 06:33:03;;;;;;;4.10;2.72;;;;;;;-1.36;83.04;101266.78;1663048;86;21062;-74
2020/12/17 06:35:52;;;;;;;6.83;3.30;;;;;;;-1.35;83.06;101273.83;1662807;86;21162;-74
2020/12/17 06:38:23;;;;;;;3.83;3.43;;;;;;;-1.36;83.02;101271.23;1662653;86;21380;-72
2020/12/17 06:40:51;;;;;;;7.33;4.50;;;;;;;-1.37;83.04;101274.33;1662650;86;21075;-71
2020/12/17 06:43:38;;;;;;;9.57;5.40;;;;;;;-1.36;83.05;101268.58;1662705;86;21137;-71
2020/12/17 06:46:06;;;;;;;4.50;3.00;;;;;;;-1.36;83.03;101262.80;1663094;86;21039;-74
2020/12/17 06:51:37;;;;;;;4.50;3.40;;;;;;;-1.28;83.07;101265.59;1890351;76;25545;-72
2020/12/17 06:54:18;;;;;;;6.23;3.23;;;;;;;-1.37;83.05;101269.02;1857632;77;20943;-71
2020/12/17 06:57:13;;;;;;;5.10;3.93;;;;;;;-1.39;83.03;101264.72;1780693;78;22188;-72
2020/12/17 06:59:44;;;;;;;8.03;4.60;;;;;;;-1.39;82.99;101265.58;1770089;81;21476;-71
2020/12/17 07:02:17;;;;;;;7.20;5.33;;;;;;;-1.37;83.03;101271.67;1756117;81;20945;-71
2020/12/17 07:04:49;;;;;;;8.97;3.73;;;;;;;-1.38;83.06;101274.39;1742838;81;20942;-72
2020/12/17 07:07:23;;;;;;;3.58;2.50;;;;;;;-1.35;83.11;101269.84;1756248;81;21047;-70
2020/12/17 07:09:54;;;;;;;;;;;;;;;-1.34;83.05;101270.70;1772624;81;21431;-66
2020/12/17 07:12:39;;;;;;;7.77;5.17;;;;;;;-1.37;82.94;101282.77;1706569;83;20144;-71
2020/12/17 07:15:37;;;;;;;12.57;6.20;;;;;;;-1.37;82.91;101284.94;1706568;84;21101;-71
2020/12/17 07:18:21;;;;;;;6.90;3.57;;;;;;;-1.35;82.90;101294.17;1717706;81;21045;-70
2020/12/17 07:21:06;;;;;;;6.87;4.43;;;;;;;-1.26;82.96;101299.56;1889950;76;26733;-71
2020/12/17 07:23:38;;;;;;;6.70;3.57;;;;;;;-1.27;82.94;101300.50;1861339;76;21036;-72
2020/12/17 07:26:12;;;;;;;6.60;3.35;;;;;;;-1.23;82.94;101298.11;1864354;77;21192;-70
2020/12/17 07:28:40;;;;;;;6.20;3.10;;;;;;;-1.19;82.94;101301.91;1874243;76;21092;-72
2020/12/17 07:31:08;;;;;;;8.03;4.17;;;;;;;-1.17;82.93;101305.36;1840318;76;21008;-72
2020/12/17 07:33:43;;;;;;;12.23;5.67;;;;;;;-1.13;82.90;101311.40;1870575;76;20898;-70
2020/12/17 07:36:49;;;;;;;5.27;3.63;;;;;;;-1.16;82.79;101310.20;1861907;76;20966;-72
2020/12/17 07:39:18;;;;;;;7.67;4.73;;;;;;;-1.20;82.67;101299.31;1867637;76;22055;-73
2020/12/17 07:41:46;;;;;;;7.23;5.13;;;;;;;-1.26;82.58;101317.66;1858340;76;20922;-72
2020/12/17 07:44:35;;;;;;;6.23;4.43;;;;;;;-1.29;82.59;101315.16;1768622;80;21569;-73
2020/12/17 07:47:20;;;;;;;12.10;6.73;;;;;;;-1.24;82.62;101318.93;1890791;75;25432;-72
2020/12/17 07:49:48;;;;;;;5.07;3.70;;;;;;;-1.30;82.65;101322.70;1860771;77;20864;-73
2020/12/17 07:52:33;;;;;;;12.60;6.87;;;;;;;-1.29;82.65;101324.45;1859367;76;21091;-74
2020/12/17 07:55:02;;;;;;;9.10;4.87;;;;;;;-1.30;82.62;101324.03;1796666;79;20942;-72
2020/12/17 07:57:30;;;;;;;11.40;5.33;;;;;;;-1.28;82.66;101319.52;1794989;80;20898;-71
2020/12/17 07:59:58;;;;;;;7.70;4.37;;;;;;;-1.26;82.72;101312.83;1820182;78;20990;-74
2020/12/17 08:02:26;;;;;;;8.90;4.43;;;;;;;-1.21;82.77;101314.83;1810912;78;20998;-72
2020/12/17 08:04:56;;;;;;;7.43;4.57;;;;;;;-1.19;82.77;101313.86;1813793;79;21208;-70
2020/12/17 08:07:24;;;;;;;10.23;4.90;;;;;;;-1.17;82.75;101320.40;1814231;79;21131;-70
2020/12/17 08:10:00;;;;;;;16.77;8.83;;;;;;;-1.15;82.75;101317.24;1790926;80;21599;-71
2020/12/17 08:12:28;;;;;;;11.03;5.95;;;;;;;-1.13;82.76;101323.78;1743092;81;21195;-68
2020/12/17 08:15:08;;;;;;;8.80;4.30;;;;;;;-1.15;82.70;101320.75;1725751;82;21211;-69
2020/12/17 08:17:36;;;;;;;5.37;3.67;;;;;;;-1.15;82.69;101323.88;1733336;82;21249;-70
2020/12/17 08:20:04;;;;;;;6.73;4.00;;;;;;;-1.15;82.69;101319.90;1731459;82;21042;-70
2020/12/17 08:22:32;;;;;;;5.23;3.93;;;;;;;-1.16;82.69;101316.36;1739450;82;20923;-65
2020/12/17 08:25:05;;;;;;;12.43;7.50;;;;;;;-1.15;82.73;101322.08;1704756;83;21843;-66
2020/12/17 08:27:33;;;;;;;4.67;3.13;;;;;;;-1.13;82.77;101326.44;1724960;83;21033;-64
2020/12/17 08:30:01;;;;;;;18.00;9.43;;;;;;;-1.15;82.78;101318.09;1724888;83;21393;-65
2020/12/17 08:32:33;;;;;;;13.00;7.07;;;;;;;-1.14;82.81;101310.98;1724855;83;21186;-65
2020/12/17 08:35:01;;;;;;;10.57;4.83;;;;;;;-1.13;82.83;101309.19;1724639;83;21183;-66
2020/12/17 08:37:29;;;;;;;9.47;4.83;;;;;;;-1.10;82.88;101320.53;1725961;83;21037;-66
2020/12/17 08:40:04;;;;;;;8.80;5.50;;;;;;;-1.06;82.93;101315.52;1726007;82;21009;-65
2020/12/17 08:42:39;;;;;;;12.13;5.63;;;;;;;-1.01;82.92;101314.86;1889848;76;25536;-70
2020/12/17 08:45:09;;;;;;;10.83;6.33;;;;;;;-1.05;82.92;101316.38;1860890;77;20923;-71
2020/12/17 08:47:40;;;;;;;7.70;4.60;;;;;;;-1.07;82.91;101315.58;1859623;77;22268;-71
2020/12/17 08:50:09;;;;;;;7.27;4.10;;;;;;;-1.08;82.99;101316.49;1860908;77;20931;-73
2020/12/17 08:52:37;;;;;;;8.20;4.10;;;;;;;-1.03;83.06;101314.51;1860961;77;20923;-70
2020/12/17 08:55:07;;;;;;;3.63;2.83;;;;;;;-1.04;83.08;101313.66;1860807;77;21006;-72
2020/12/17 08:57:35;;;;;;;11.00;5.80;;;;;;;-1.02;83.11;101316.25;1860895;77;21013;-71
2020/12/17 09:00:12;;;;;;;9.23;5.73;;;;;;;-0.98;83.14;101309.87;1860949;77;22204;-72
2020/12/17 09:02:40;;;;;;;6.27;3.77;;;;;;;-0.97;83.18;101312.47;1802350;79;21299;-72
2020/12/17 09:05:12;;;;;;;4.10;3.50;;;;;;;-0.97;83.20;101312.94;1802160;79;21096;-71
2020/12/17 09:07:46;;;;;;;7.00;4.37;;;;;;;-0.93;83.22;101308.36;1802294;79;20949;-72
2020/12/17 09:10:15;;;;;;;11.05;5.10;;;;;;;-0.95;83.19;101309.75;1798483;79;21057;-71
2020/12/17 09:12:44;;;;;;;6.97;3.75;;;;;;;-0.99;83.15;101314.33;1802327;79;21195;-71
2020/12/17 09:15:15;;;;;;;7.73;4.77;;;;;;;-1.01;83.12;101313.98;1802418;79;21013;-72
2020/12/17 09:17:43;;;;;;;10.20;5.90;;;;;;;-1.03;83.12;101318.49;1791518;79;21040;-72
2020/12/17 09:20:21;;;;;;;12.40;6.40;;;;;;;-1.04;83.17;101318.97;1787805;79;21052;-74
2020/12/17 09:22:49;;;;;;;9.43;5.80;;;;;;;-1.04;83.22;101326.93;1805145;79;21034;-70
2020/12/17 09:25:27;;;;;;;24.73;10.50;;;;;;;-1.03;83.30;101325.13;1804415;79;22811;-75
2020/12/17 09:27:55;;;;;;;11.73;6.33;;;;;;;-1.04;83.33;101324.75;1792725;79;21041;-74
2020/12/17 09:30:31;;;;;;;13.37;6.00;;;;;;;-1.04;83.40;101320.30;1722063;83;21201;-72
2020/12/17 09:33:02;;;;;;;16.77;6.53;;;;;;;-1.03;83.47;101313.19;1719625;83;21041;-69
2020/12/17 09:35:32;;;;;;;11.07;7.33;;;;;;;-1.02;83.50;101317.58;1737376;81;21048;-70
2020/12/17 09:38:09;;;;;;;15.03;6.63;;;;;;;-1.01;83.60;101318.84;1750040;81;22316;-71
2020/12/17 09:40:38;;;;;;;8.70;4.43;;;;;;;-0.99;83.63;101318.31;1758721;81;21005;-71
2020/12/17 09:43:10;;;;;;;10.90;6.27;;;;;;;-0.99;83.65;101319.64;1753534;81;21012;-72
2020/12/17 09:45:48;;;;;;;9.27;5.23;;;;;;;-0.94;83.70;101310.12;1851990;76;25502;-71
2020/12/17 09:48:27;;;;;;;13.93;5.50;;;;;;;-0.98;83.72;101312.52;1782881;80;21130;-71
2020/12/17 09:51:04;;;;;;;10.27;4.43;;;;;;;-0.99;83.76;101313.00;1772259;80;21474;-72
2020/12/17 09:53:37;;;;;;;7.37;4.50;;;;;;;-1.01;83.80;101308.22;1766929;81;21908;-70
2020/12/17 09:56:12;;;;;;;9.00;5.00;;;;;;;-1.04;83.84;101301.70;1772067;81;21085;-73
2020/12/17 09:58:47;;;;;;;10.00;6.10;;;;;;;-1.00;83.91;101294.48;1845515;76;25468;-74
2020/12/17 10:01:15;;;;;;;9.20;6.17;;;;;;;-1.03;83.94;101286.63;1815502;79;20909;-71
2020/12/17 10:03:43;;;;;;;11.70;5.50;;;;;;;-1.04;84.01;101283.12;1815380;79;21197;-73
2020/12/17 10:06:12;;;;;;;11.17;5.33;;;;;;;-1.04;84.07;101282.27;1815289;77;21028;-73
2020/12/17 10:08:39;;;;;;;8.40;3.93;;;;;;;-1.04;84.15;101279.14;1815451;79;20980;-73
2020/12/17 10:11:09;;;;;;;7.40;4.43;;;;;;;-1.03;84.23;101281.33;1815356;79;21028;-71
2020/12/17 10:13:37;;;;;;;8.27;5.03;;;;;;;-1.02;84.29;101275.09;1815520;77;21004;-70
2020/12/17 10:16:05;;;;;;;10.67;5.90;;;;;;;-1.02;84.31;101271.12;1815720;79;22072;-71
2020/12/17 10:18:33;;;;;;;12.80;5.63;;;;;;;-1.01;84.38;101268.84;1809333;78;21031;-70
2020/12/17 10:21:01;;;;;;;13.73;6.17;;;;;;;-1.03;84.44;101279.52;1783386;80;21461;-71
2020/12/17 10:23:29;;;;;;;11.20;6.07;;;;;;;-1.05;84.52;101273.89;1735668;82;21056;-71
2020/12/17 10:25:57;;;;;;;9.27;4.87;;;;;;;-1.05;84.65;101280.06;1753265;81;20934;-71
2020/12/17 10:28:25;;;;;;;16.20;7.10;;;;;;;-1.03;84.77;101273.36;1735090;82;21370;-72
2020/12/17 10:30:52;;;;;;;7.30;4.93;;;;;;;-1.02;84.86;101275.09;1740231;79;21068;-72
2020/12/17 10:33:20;;;;;;;12.83;6.67;;;;;;;-1.02;84.94;101268.46;1771654;79;21028;-71
2020/12/17 10:35:48;;;;;;;12.80;6.30;;;;;;;-1.05;85.03;101264.60;1771647;81;20916;-70
2020/12/17 10:38:16;;;;;;;12.73;6.77;;;;;;;-1.08;85.15;101264.73;1771774;81;21003;-71
2020/12/17 10:40:44;;;;;;;15.00;6.77;;;;;;;-1.09;85.27;101263.87;1771776;81;21148;-71
2020/12/17 10:43:12;;;;;;;11.27;7.17;;;;;;;-1.09;85.42;101268.33;1771779;81;21035;-71
2020/12/17 10:45:40;;;;;;;6.67;4.70;;;;;;;-1.08;85.56;101263.41;1771840;81;21129;-72
2020/12/17 10:48:11;;;;;;;9.47;5.83;;;;;;;-1.04;85.68;101263.21;1767466;81;21577;-73
2020/12/17 10:50:39;;;;;;;15.93;8.47;;;;;;;-1.02;85.77;101267.13;1771581;81;21039;-73
2020/12/17 10:53:07;;;;;;;14.27;7.30;;;;;;;-0.99;85.83;101264.35;1771717;81;21825;-72
2020/12/17 10:55:35;;;;;;;15.40;5.77;;;;;;;-0.99;85.89;101263.03;1741711;81;20992;-69
2020/12/17 10:58:05;;;;;;;12.20;5.93;;;;;;;-1.00;85.95;101262.14;1771613;79;21644;-67
2020/12/17 11:00:33;;;;;;;11.37;5.80;;;;;;;-1.04;86.00;101268.52;1771535;81;21746;-67
2020/12/17 11:03:01;;;;;;;13.67;6.80;;;;;;;-1.05;86.07;101265.45;1771299;80;21556;-67
2020/12/17 11:05:29;;;;;;;7.17;4.67;;;;;;;-1.03;86.14;101270.23;1771550;81;22088;-68
2020/12/17 11:07:57;;;;;;;14.50;6.70;;;;;;;-1.00;86.22;101272.76;1771457;81;20991;-67
2020/12/17 11:10:26;;;;;;;10.67;5.87;;;;;;;-0.97;86.27;101275.77;1770183;80;21643;-68
2020/12/17 11:12:54;;;;;;;6.77;4.30;;;;;;;-0.97;86.32;101281.93;1770793;81;21015;-67
2020/12/17 11:15:23;;;;;;;8.23;4.20;;;;;;;-0.99;86.34;101276.30;1770797;79;20948;-66
2020/12/17 11:17:51;;;;;;;7.67;4.73;;;;;;;-1.01;86.38;101274.15;1760057;81;22302;-67
2020/12/17 11:20:19;;;;;;;18.63;8.77;;;;;;;-1.04;86.38;101276.48;1734628;79;21566;-65
2020/12/17 11:22:46;;;;;;;11.10;6.57;;;;;;;-1.06;86.43;101273.04;1734994;82;20989;-67
2020/12/17 11:25:14;;;;;;;14.13;5.70;;;;;;;-1.09;86.47;101267.00;1740364;82;21018;-67
2020/12/17 11:27:42;;;;;;;7.87;4.63;;;;;;;-1.13;86.56;101267.60;1758305;81;20996;-66
2020/12/17 11:30:11;;;;;;;3.53;3.03;;;;;;;-1.12;86.65;101269.31;1757958;81;21197;-66
2020/12/17 11:32:38;;;;;;;10.43;5.47;;;;;;;-1.09;86.72;101260.36;1758028;81;20984;-68
2020/12/17 11:35:09;;;;;;;16.30;5.67;;;;;;;-1.05;86.79;101268.11;1754320;81;21346;-68
2020/12/17 11:37:37;;;;;;;7.23;4.57;;;;;;;-1.03;86.87;101262.27;1758240;81;21061;-67
2020/12/17 11:40:05;;;;;;;6.63;4.07;;;;;;;-1.03;86.92;101257.43;1758221;81;21021;-67